Weather reports worldwide

Advertisment
Cartagena, Spain (8434): temperature & dewpoint: 03.04.2020 12:00:00 - 09.04.2020 12:00:00 (CEST)Cartagena, Spain (8434): wind speed & gusts: 03.04.2020 12:00:00 - 09.04.2020 12:00:00 (CEST)Cartagena, Spain (8434): wind direction: 03.04.2020 12:00:00 - 09.04.2020 12:00:00 (CEST)Cartagena, Spain (8434): precipitation: 03.04.2020 12:00:00 - 09.04.2020 12:00:00 (CEST)
Date & Time tt [°C] td [°C] ff [km/h] ff [kn] fx [km/h] fx [kn] dd rr [mm]
09.04.2020 12:00:00 16,8 11,3 10 5 26 14 NNE 0,0
09.04.2020 11:00:00 16,5 11,7 9 5 22 12 NNE 0,0
09.04.2020 10:00:00 15,5 11,7 8 4 17 9 N 0,0
09.04.2020 09:00:00 14,1 11,1 7 4 16 9 NNW 0,0
09.04.2020 08:00:00 13,3 10,7 7 4 19 10 NW -
09.04.2020 07:00:00 13,3 10,7 6 4 16 9 NNW 0,0
09.04.2020 06:00:00 13,4 10,9 6 4 17 9 NNW 0,0
09.04.2020 05:00:00 13,1 10,6 5 3 14 8 NNW 0,0
09.04.2020 04:00:00 13,3 10,8 6 3 13 7 NW 0,0
09.04.2020 03:00:00 13,4 10,9 5 3 16 9 NW 0,0
09.04.2020 02:00:00 13,3 10,7 7 4 14 8 NW -
09.04.2020 01:00:00 13,9 10,7 5 3 14 7 NW 0,0
09.04.2020 00:00:00 14,6 10,2 6 3 14 8 NNW 0,0
08.04.2020 23:00:00 15,1 9,9 8 4 15 8 N 0,0
08.04.2020 22:00:00 15,5 9,6 6 3 13 7 N 0,0
08.04.2020 21:00:00 16,2 9,4 6 3 17 9 NNE 0,0
08.04.2020 20:00:00 17,0 9,2 8 4 20 11 NE -
08.04.2020 19:00:00 18,1 9,7 6 3 22 12 NE 0,0
08.04.2020 18:00:00 17,9 8,5 8 5 23 12 NE 0,0
08.04.2020 17:00:00 19,1 7,5 6 3 24 13 ENE 0,0
08.04.2020 16:00:00 18,2 7,9 10 5 25 13 NE 0,0
08.04.2020 15:00:00 18,2 8,2 9 5 26 14 NE 0,0
08.04.2020 14:00:00 18,2 9,8 10 5 26 14 ENE -
08.04.2020 13:00:00 18,3 10,4 5 3 23 13 NE 0,0
08.04.2020 12:00:00 17,0 10,2 8 4 23 13 NE 0,0
08.04.2020 11:00:00 16,8 10,9 8 5 19 10 NNE 0,0
08.04.2020 10:00:00 15,8 11,2 8 4 15 8 N 0,0
08.04.2020 09:00:00 13,7 10,7 5 3 16 8 N 0,0
08.04.2020 08:00:00 12,1 10,0 4 2 13 7 NW -
08.04.2020 07:00:00 12,3 10,2 5 3 11 6 NW 0,0
08.04.2020 06:00:00 12,5 10,4 3 2 12 7 NNW 0,0
08.04.2020 05:00:00 13,1 10,6 4 2 16 9 NNW 0,0
08.04.2020 04:00:00 13,4 10,9 7 4 16 8 NNW 0,0
08.04.2020 03:00:00 13,5 10,9 4 2 16 8 NNW 0,0
08.04.2020 02:00:00 13,6 10,8 4 2 10 6 NW -
08.04.2020 01:00:00 13,9 10,7 3 2 10 6 NW 0,0
08.04.2020 00:00:00 14,8 10,8 3 2 11 6 NW 0,0
07.04.2020 23:00:00 15,0 10,8 6 3 11 6 N 0,0
07.04.2020 22:00:00 15,6 10,8 5 3 11 6 N 0,0
07.04.2020 21:00:00 16,2 10,5 5 3 16 9 NNE 0,0
07.04.2020 20:00:00 16,9 10,1 7 4 19 10 NE -
07.04.2020 19:00:00 17,7 9,3 8 5 21 12 NE 0,0
07.04.2020 18:00:00 18,4 8,9 8 4 22 12 NE 0,0
07.04.2020 17:00:00 18,6 9,1 9 5 21 11 NE 0,0
07.04.2020 16:00:00 19,0 8,9 9 5 21 11 NE 0,0
07.04.2020 15:00:00 18,6 8,6 7 4 20 11 ENE 0,0
07.04.2020 14:00:00 18,5 9,6 9 5 20 11 ENE -
07.04.2020 13:00:00 18,3 9,9 6 4 21 11 NE 0,0
07.04.2020 12:00:00 17,5 10,9 5 3 19 10 NE 0,0
07.04.2020 11:00:00 16,9 11,8 6 3 18 10 NNE 0,0
07.04.2020 10:00:00 15,4 12,0 3 1 11 6 NE 0,0
07.04.2020 09:00:00 13,3 11,4 4 2 8 4 N 0,0
07.04.2020 08:00:00 12,7 10,8 3 1 8 4 N -
07.04.2020 07:00:00 12,7 10,6 3 2 9 5 N 0,0
07.04.2020 06:00:00 12,9 10,8 3 2 10 5 N 0,0
07.04.2020 05:00:00 12,9 10,4 2 1 9 5 NNW 0,0
07.04.2020 04:00:00 13,1 10,6 4 2 9 5 NNW 0,0
07.04.2020 03:00:00 13,5 10,9 4 2 8 5 NW 0,0
07.04.2020 02:00:00 14,1 10,9 3 2 7 4 NW -
07.04.2020 01:00:00 14,6 11,0 3 1 7 4 NNE 0,0
07.04.2020 00:00:00 15,2 11,2 2 1 7 4 NW 0,0
06.04.2020 23:00:00 15,5 11,1 3 2 6 3 NNE 0,0
06.04.2020 22:00:00 15,8 11,0 4 2 8 4 NE 0,0
06.04.2020 21:00:00 15,9 10,7 4 2 10 5 E 0,0
06.04.2020 20:00:00 16,7 10,8 5 3 14 7 ENE -
06.04.2020 19:00:00 16,8 10,6 7 4 14 8 SE 0,0
06.04.2020 18:00:00 16,9 10,3 6 3 15 8 SSW 0,0
06.04.2020 17:00:00 16,5 10,1 9 5 18 10 SSW 0,0
06.04.2020 16:00:00 18,2 11,3 5 3 17 9 S 0,0
06.04.2020 15:00:00 18,1 10,5 5 3 15 8 S 0,0
06.04.2020 14:00:00 17,1 10,2 5 3 13 7 SSE -
06.04.2020 13:00:00 17,3 10,2 6 4 13 7 SSE 0,0
06.04.2020 12:00:00 16,4 9,8 5 3 9 5 SE 0,0
06.04.2020 11:00:00 17,3 11,1 2 1 8 4 N 0,0
06.04.2020 10:00:00 15,3 10,5 3 2 8 4 NNE 0,0
06.04.2020 09:00:00 13,1 10,1 1 1 5 3 NE 0,0
06.04.2020 08:00:00 11,8 9,2 0 0 5 3 NE -
06.04.2020 07:00:00 12,1 9,3 2 1 5 3 NE 0,0
06.04.2020 06:00:00 12,3 9,3 1 1 6 3 NNE 0,0
06.04.2020 05:00:00 12,5 9,3 4 2 6 4 NNE 0,0
06.04.2020 04:00:00 13,0 9,6 4 2 8 4 NNE 0,0
06.04.2020 03:00:00 13,2 9,8 1 1 5 3 NNE 0,0
06.04.2020 02:00:00 13,3 9,7 3 1 6 4 NNE -
06.04.2020 01:00:00 13,8 9,8 4 2 9 5 NNW 0,0
06.04.2020 00:00:00 14,3 9,5 3 2 7 4 NW 0,0
05.04.2020 23:00:00 14,8 9,2 3 1 7 4 NE 0,0
05.04.2020 22:00:00 15,2 9,3 4 2 10 5 NNE 0,0
05.04.2020 21:00:00 15,4 8,9 4 2 14 8 NE 0,0
05.04.2020 20:00:00 16,0 8,7 7 4 18 10 NE -
05.04.2020 19:00:00 17,1 8,5 9 5 21 11 ENE 0,0
05.04.2020 18:00:00 17,5 7,8 9 5 22 12 ENE 0,0
05.04.2020 17:00:00 17,5 7,8 9 5 25 14 NE 0,0
05.04.2020 16:00:00 17,6 7,6 10 5 29 16 ENE 0,0
05.04.2020 15:00:00 17,4 7,7 11 6 27 14 ENE 0,0
05.04.2020 14:00:00 17,5 8,4 9 5 22 12 ENE -
05.04.2020 13:00:00 17,0 9,2 6 3 22 12 ENE 0,0
05.04.2020 12:00:00 16,8 10,0 10 5 26 14 NE 0,0
05.04.2020 11:00:00 15,6 10,4 8 4 18 10 NE 0,0
05.04.2020 10:00:00 14,7 11,1 4 2 11 6 NNE 0,0
05.04.2020 09:00:00 12,9 10,4 1 0 9 5 NNE 0,0
05.04.2020 08:00:00 12,3 9,9 3 2 7 4 NNW -
05.04.2020 07:00:00 12,3 9,7 4 2 10 5 N 0,0
05.04.2020 06:00:00 12,7 9,7 2 1 8 4 N 0,0
05.04.2020 05:00:00 13,2 9,6 3 1 9 5 NNW 0,0
05.04.2020 04:00:00 13,7 9,7 3 2 9 5 NNW 0,0
05.04.2020 03:00:00 14,0 10,0 3 1 10 5 NNW 0,0
05.04.2020 02:00:00 14,3 9,9 3 1 7 4 NW -
05.04.2020 01:00:00 14,8 9,6 3 1 12 7 NW 0,0
05.04.2020 00:00:00 14,7 9,1 5 3 12 7 NNE 0,0
04.04.2020 23:00:00 14,9 9,3 3 2 9 5 NE 0,0
04.04.2020 22:00:00 15,2 9,6 4 2 12 7 NNE 0,0
04.04.2020 21:00:00 15,6 9,9 4 2 17 9 NE 0,0
04.04.2020 20:00:00 16,2 9,6 8 4 19 10 ENE -
04.04.2020 19:00:00 16,8 9,3 7 4 21 11 ENE 0,0
04.04.2020 18:00:00 17,3 9,2 8 5 21 11 ENE 0,0
04.04.2020 17:00:00 17,2 9,9 8 4 24 13 ENE 0,0
04.04.2020 16:00:00 17,9 9,5 10 6 24 13 ENE 0,0
04.04.2020 15:00:00 17,9 9,5 9 5 29 16 ENE 0,0
04.04.2020 14:00:00 17,9 9,8 10 6 23 13 ENE -
04.04.2020 13:00:00 16,8 9,3 6 3 20 11 NE 0,0
04.04.2020 12:00:00 16,1 9,3 9 5 18 10 ENE 0,0
04.04.2020 11:00:00 16,3 11,0 4 2 10 5 NNE 0,0
04.04.2020 10:00:00 13,7 9,7 5 3 8 5 N 0,0
04.04.2020 09:00:00 12,0 9,7 1 1 5 3 NNE 0,0
04.04.2020 08:00:00 10,3 8,1 0 0 5 3 W -
04.04.2020 07:00:00 10,7 8,3 1 1 5 3 NNE 0,0
04.04.2020 06:00:00 11,2 8,6 2 1 5 3 NNE 0,0
04.04.2020 05:00:00 11,6 8,8 2 1 4 2 ENE 0,0
04.04.2020 04:00:00 11,8 8,7 2 1 4 2 WNW 0,0
04.04.2020 03:00:00 12,0 8,8 1 1 4 2 WNW 0,0
04.04.2020 02:00:00 12,2 8,5 1 0 6 3 W -
04.04.2020 01:00:00 13,2 8,7 2 1 6 3 NNW 0,0
04.04.2020 00:00:00 14,8 9,2 3 1 10 5 SE 0,0
03.04.2020 23:00:00 15,1 9,0 4 2 12 6 SE 0,0
03.04.2020 22:00:00 15,3 9,0 5 3 15 8 S 0,0
03.04.2020 21:00:00 15,7 8,5 4 2 14 8 SSE 0,0
03.04.2020 20:00:00 16,1 7,9 6 4 15 8 SE -
03.04.2020 19:00:00 17,3 7,6 4 2 16 8 S 0,0
03.04.2020 18:00:00 17,4 6,9 8 5 17 9 S 0,0
03.04.2020 17:00:00 17,8 6,4 10 5 21 11 S 0,0
03.04.2020 16:00:00 18,3 6,2 9 5 19 10 S 0,0
03.04.2020 15:00:00 17,7 6,9 10 5 16 9 SSW 0,0
03.04.2020 14:00:00 19,0 5,8 6 3 18 10 E -
03.04.2020 13:00:00 17,7 5,0 8 4 16 9 ENE 0,0
03.04.2020 12:00:00 17,6 8,2 4 2 13 7 NE 0,0

tt = temperature
td = dewpoint
ff = wind speed
fx = gusts
dd = wind direction
rr = precipitation

Next stations